sensor_id;sensor_type;location;lat;lon;timestamp;P1;durP1;ratioP1;P2;durP2;ratioP2
65658;SDS011;60181;53.258;6.932;2023-05-19T00:00:02;13.60;;;2.90;;
65658;SDS011;60181;53.258;6.932;2023-05-19T00:04:06;13.60;;;2.90;;
65658;SDS011;60181;53.258;6.932;2023-05-19T00:08:09;13.00;;;2.80;;
65658;SDS011;60181;53.258;6.932;2023-05-19T00:12:14;13.00;;;2.80;;
65658;SDS011;60181;53.258;6.932;2023-05-19T00:16:18;13.00;;;2.80;;
65658;SDS011;60181;53.258;6.932;2023-05-19T00:20:21;14.50;;;2.90;;
65658;SDS011;60181;53.258;6.932;2023-05-19T00:24:25;14.50;;;2.90;;
65658;SDS011;60181;53.258;6.932;2023-05-19T00:28:29;15.10;;;2.90;;
65658;SDS011;60181;53.258;6.932;2023-05-19T00:32:33;15.10;;;2.90;;
65658;SDS011;60181;53.258;6.932;2023-05-19T00:36:37;15.10;;;2.90;;
65658;SDS011;60181;53.258;6.932;2023-05-19T00:40:41;13.40;;;3.10;;
65658;SDS011;60181;53.258;6.932;2023-05-19T00:44:45;13.40;;;3.10;;
65658;SDS011;60181;53.258;6.932;2023-05-19T00:48:49;13.70;;;2.90;;
65658;SDS011;60181;53.258;6.932;2023-05-19T00:52:54;13.70;;;2.90;;
65658;SDS011;60181;53.258;6.932;2023-05-19T00:56:57;13.70;;;2.90;;
65658;SDS011;60181;53.258;6.932;2023-05-19T01:01:01;16.00;;;3.10;;
65658;SDS011;60181;53.258;6.932;2023-05-19T01:05:06;16.00;;;3.10;;
65658;SDS011;60181;53.258;6.932;2023-05-19T01:09:09;13.60;;;2.90;;
65658;SDS011;60181;53.258;6.932;2023-05-19T01:13:13;13.60;;;2.90;;
65658;SDS011;60181;53.258;6.932;2023-05-19T01:33:33;17.30;;;3.20;;
65658;SDS011;60181;53.258;6.932;2023-05-19T01:37:38;17.90;;;3.30;;
65658;SDS011;60181;53.258;6.932;2023-05-19T01:41:41;17.90;;;3.30;;
65658;SDS011;60181;53.258;6.932;2023-05-19T01:45:45;17.90;;;3.30;;
65658;SDS011;60181;53.258;6.932;2023-05-19T01:49:49;12.20;;;2.90;;
65658;SDS011;60181;53.258;6.932;2023-05-19T01:53:53;12.20;;;2.90;;
65658;SDS011;60181;53.258;6.932;2023-05-19T01:58:17;13.00;;;3.20;;
65658;SDS011;60181;53.258;6.932;2023-05-19T02:02:02;13.00;;;3.20;;
65658;SDS011;60181;53.258;6.932;2023-05-19T02:10:10;11.80;;;3.10;;
65658;SDS011;60181;53.258;6.932;2023-05-19T02:14:20;11.80;;;3.10;;
65658;SDS011;60181;53.258;6.932;2023-05-19T02:18:17;15.40;;;3.20;;
65658;SDS011;60181;53.258;6.932;2023-05-19T02:22:21;15.40;;;3.20;;
65658;SDS011;60181;53.258;6.932;2023-05-19T02:26:25;15.40;;;3.20;;
65658;SDS011;60181;53.258;6.932;2023-05-19T02:30:29;11.50;;;2.90;;
65658;SDS011;60181;53.258;6.932;2023-05-19T02:34:33;11.50;;;2.90;;
65658;SDS011;60181;53.258;6.932;2023-05-19T02:38:37;18.50;;;3.40;;
65658;SDS011;60181;53.258;6.932;2023-05-19T02:42:41;18.50;;;3.40;;
65658;SDS011;60181;53.258;6.932;2023-05-19T02:46:45;18.50;;;3.40;;
65658;SDS011;60181;53.258;6.932;2023-05-19T02:50:49;15.20;;;3.60;;
65658;SDS011;60181;53.258;6.932;2023-05-19T02:54:53;15.20;;;3.60;;
65658;SDS011;60181;53.258;6.932;2023-05-19T02:58:57;15.80;;;3.30;;
65658;SDS011;60181;53.258;6.932;2023-05-19T03:03:01;15.80;;;3.30;;
65658;SDS011;60181;53.258;6.932;2023-05-19T03:07:05;15.80;;;3.30;;
65658;SDS011;60181;53.258;6.932;2023-05-19T03:11:09;15.90;;;3.00;;
65658;SDS011;60181;53.258;6.932;2023-05-19T03:15:13;15.90;;;3.00;;
65658;SDS011;60181;53.258;6.932;2023-05-19T03:19:17;19.00;;;3.60;;
65658;SDS011;60181;53.258;6.932;2023-05-19T03:23:21;19.00;;;3.60;;
65658;SDS011;60181;53.258;6.932;2023-05-19T03:27:25;11.90;;;3.30;;
65658;SDS011;60181;53.258;6.932;2023-05-19T03:31:29;11.90;;;3.30;;
65658;SDS011;60181;53.258;6.932;2023-05-19T03:35:33;11.90;;;3.30;;
65658;SDS011;60181;53.258;6.932;2023-05-19T03:39:37;10.50;;;3.00;;
65658;SDS011;60181;53.258;6.932;2023-05-19T03:43:41;10.50;;;3.00;;
65658;SDS011;60181;53.258;6.932;2023-05-19T03:47:45;12.30;;;3.10;;
65658;SDS011;60181;53.258;6.932;2023-05-19T03:51:49;12.30;;;3.10;;
65658;SDS011;60181;53.258;6.932;2023-05-19T03:55:53;12.30;;;3.10;;
65658;SDS011;60181;53.258;6.932;2023-05-19T03:59:57;15.70;;;3.20;;
65658;SDS011;60181;53.258;6.932;2023-05-19T04:04:01;15.70;;;3.20;;
65658;SDS011;60181;53.258;6.932;2023-05-19T04:08:05;10.50;;;3.20;;
65658;SDS011;60181;53.258;6.932;2023-05-19T04:12:09;10.50;;;3.20;;
65658;SDS011;60181;53.258;6.932;2023-05-19T04:16:13;10.50;;;3.20;;
65658;SDS011;60181;53.258;6.932;2023-05-19T04:20:17;11.80;;;3.60;;
65658;SDS011;60181;53.258;6.932;2023-05-19T04:24:21;11.80;;;3.60;;
65658;SDS011;60181;53.258;6.932;2023-05-19T04:28:25;12.90;;;3.70;;
65658;SDS011;60181;53.258;6.932;2023-05-19T04:32:29;12.90;;;3.70;;
65658;SDS011;60181;53.258;6.932;2023-05-19T04:36:33;12.90;;;3.70;;
65658;SDS011;60181;53.258;6.932;2023-05-19T04:40:37;11.00;;;3.40;;
65658;SDS011;60181;53.258;6.932;2023-05-19T04:44:41;11.00;;;3.40;;
65658;SDS011;60181;53.258;6.932;2023-05-19T04:48:45;11.10;;;3.40;;
65658;SDS011;60181;53.258;6.932;2023-05-19T04:52:49;11.10;;;3.40;;
65658;SDS011;60181;53.258;6.932;2023-05-19T04:56:53;11.10;;;3.40;;
65658;SDS011;60181;53.258;6.932;2023-05-19T05:00:57;15.40;;;3.60;;
65658;SDS011;60181;53.258;6.932;2023-05-19T05:05:01;15.40;;;3.60;;
65658;SDS011;60181;53.258;6.932;2023-05-19T05:09:05;11.60;;;3.30;;
65658;SDS011;60181;53.258;6.932;2023-05-19T05:13:09;11.60;;;3.30;;
65658;SDS011;60181;53.258;6.932;2023-05-19T05:17:13;11.60;;;3.30;;
65658;SDS011;60181;53.258;6.932;2023-05-19T05:21:17;12.30;;;3.40;;
65658;SDS011;60181;53.258;6.932;2023-05-19T05:25:21;12.30;;;3.40;;
65658;SDS011;60181;53.258;6.932;2023-05-19T05:29:25;19.40;;;4.30;;
65658;SDS011;60181;53.258;6.932;2023-05-19T05:33:29;19.40;;;4.30;;
65658;SDS011;60181;53.258;6.932;2023-05-19T05:37:33;14.90;;;4.60;;
65658;SDS011;60181;53.258;6.932;2023-05-19T05:41:37;14.90;;;4.60;;
65658;SDS011;60181;53.258;6.932;2023-05-19T05:45:41;14.90;;;4.60;;
65658;SDS011;60181;53.258;6.932;2023-05-19T05:49:45;14.70;;;4.50;;
65658;SDS011;60181;53.258;6.932;2023-05-19T05:53:50;14.70;;;4.50;;
65658;SDS011;60181;53.258;6.932;2023-05-19T05:57:53;10.80;;;4.90;;
65658;SDS011;60181;53.258;6.932;2023-05-19T06:01:57;10.80;;;4.90;;
65658;SDS011;60181;53.258;6.932;2023-05-19T06:06:01;10.80;;;4.90;;
65658;SDS011;60181;53.258;6.932;2023-05-19T06:10:05;13.00;;;4.70;;
65658;SDS011;60181;53.258;6.932;2023-05-19T06:14:09;13.00;;;4.70;;
65658;SDS011;60181;53.258;6.932;2023-05-19T06:18:13;10.20;;;4.10;;
65658;SDS011;60181;53.258;6.932;2023-05-19T06:22:17;10.20;;;4.10;;
65658;SDS011;60181;53.258;6.932;2023-05-19T06:26:21;10.20;;;4.10;;
65658;SDS011;60181;53.258;6.932;2023-05-19T06:30:25;14.50;;;4.70;;
65658;SDS011;60181;53.258;6.932;2023-05-19T06:34:29;14.50;;;4.70;;
65658;SDS011;60181;53.258;6.932;2023-05-19T06:38:33;15.70;;;4.60;;
65658;SDS011;60181;53.258;6.932;2023-05-19T06:42:37;15.70;;;4.60;;
65658;SDS011;60181;53.258;6.932;2023-05-19T06:46:41;15.70;;;4.60;;
65658;SDS011;60181;53.258;6.932;2023-05-19T06:50:45;12.00;;;4.40;;
65658;SDS011;60181;53.258;6.932;2023-05-19T06:54:49;12.00;;;4.40;;
65658;SDS011;60181;53.258;6.932;2023-05-19T06:58:53;12.40;;;4.10;;
65658;SDS011;60181;53.258;6.932;2023-05-19T07:02:57;12.40;;;4.10;;
65658;SDS011;60181;53.258;6.932;2023-05-19T07:07:01;12.40;;;4.10;;
65658;SDS011;60181;53.258;6.932;2023-05-19T07:11:05;12.40;;;3.90;;
65658;SDS011;60181;53.258;6.932;2023-05-19T07:15:09;12.40;;;3.90;;
65658;SDS011;60181;53.258;6.932;2023-05-19T07:19:13;11.50;;;4.00;;
65658;SDS011;60181;53.258;6.932;2023-05-19T07:23:17;11.50;;;4.00;;
65658;SDS011;60181;53.258;6.932;2023-05-19T07:27:21;12.60;;;4.30;;
65658;SDS011;60181;53.258;6.932;2023-05-19T07:31:25;12.60;;;4.30;;
65658;SDS011;60181;53.258;6.932;2023-05-19T07:35:29;12.60;;;4.30;;
65658;SDS011;60181;53.258;6.932;2023-05-19T07:39:33;17.20;;;3.60;;
65658;SDS011;60181;53.258;6.932;2023-05-19T07:43:37;17.20;;;3.60;;
65658;SDS011;60181;53.258;6.932;2023-05-19T07:47:41;16.80;;;3.90;;
65658;SDS011;60181;53.258;6.932;2023-05-19T07:51:45;16.80;;;3.90;;
65658;SDS011;60181;53.258;6.932;2023-05-19T07:55:49;16.80;;;3.90;;
65658;SDS011;60181;53.258;6.932;2023-05-19T07:59:53;13.90;;;3.90;;
65658;SDS011;60181;53.258;6.932;2023-05-19T08:03:57;13.90;;;3.90;;
65658;SDS011;60181;53.258;6.932;2023-05-19T08:08:01;15.90;;;3.70;;
65658;SDS011;60181;53.258;6.932;2023-05-19T08:12:05;15.90;;;3.70;;
65658;SDS011;60181;53.258;6.932;2023-05-19T08:16:09;15.90;;;3.70;;
65658;SDS011;60181;53.258;6.932;2023-05-19T08:20:13;10.60;;;3.40;;
65658;SDS011;60181;53.258;6.932;2023-05-19T08:24:17;10.60;;;3.40;;
65658;SDS011;60181;53.258;6.932;2023-05-19T08:28:21;16.30;;;3.90;;
65658;SDS011;60181;53.258;6.932;2023-05-19T08:32:25;16.30;;;3.90;;
65658;SDS011;60181;53.258;6.932;2023-05-19T08:36:29;16.30;;;3.90;;
65658;SDS011;60181;53.258;6.932;2023-05-19T08:40:33;12.00;;;4.00;;
65658;SDS011;60181;53.258;6.932;2023-05-19T08:44:37;12.00;;;4.00;;
65658;SDS011;60181;53.258;6.932;2023-05-19T08:48:41;12.50;;;3.50;;
65658;SDS011;60181;53.258;6.932;2023-05-19T08:52:51;12.50;;;3.50;;
65658;SDS011;60181;53.258;6.932;2023-05-19T08:56:49;12.50;;;3.50;;
65658;SDS011;60181;53.258;6.932;2023-05-19T09:00:53;28.60;;;3.90;;
65658;SDS011;60181;53.258;6.932;2023-05-19T09:04:57;28.60;;;3.90;;
65658;SDS011;60181;53.258;6.932;2023-05-19T09:09:01;16.10;;;3.40;;
65658;SDS011;60181;53.258;6.932;2023-05-19T09:13:05;16.10;;;3.40;;
65658;SDS011;60181;53.258;6.932;2023-05-19T09:17:09;16.10;;;3.40;;
65658;SDS011;60181;53.258;6.932;2023-05-19T09:21:13;12.90;;;3.10;;
65658;SDS011;60181;53.258;6.932;2023-05-19T09:25:17;12.90;;;3.10;;
65658;SDS011;60181;53.258;6.932;2023-05-19T09:29:21;10.20;;;2.90;;
65658;SDS011;60181;53.258;6.932;2023-05-19T09:33:25;10.20;;;2.90;;
65658;SDS011;60181;53.258;6.932;2023-05-19T09:37:29;12.00;;;2.70;;
65658;SDS011;60181;53.258;6.932;2023-05-19T09:41:32;12.00;;;2.70;;
65658;SDS011;60181;53.258;6.932;2023-05-19T09:45:36;12.00;;;2.70;;
65658;SDS011;60181;53.258;6.932;2023-05-19T09:49:44;8.00;;;2.50;;
65658;SDS011;60181;53.258;6.932;2023-05-19T09:53:45;8.00;;;2.50;;
65658;SDS011;60181;53.258;6.932;2023-05-19T09:57:48;8.20;;;2.60;;
65658;SDS011;60181;53.258;6.932;2023-05-19T10:01:53;8.20;;;2.60;;
65658;SDS011;60181;53.258;6.932;2023-05-19T10:05:56;8.20;;;2.60;;
65658;SDS011;60181;53.258;6.932;2023-05-19T10:10:00;10.00;;;2.80;;
65658;SDS011;60181;53.258;6.932;2023-05-19T10:14:04;10.00;;;2.80;;
65658;SDS011;60181;53.258;6.932;2023-05-19T10:18:08;7.90;;;2.60;;
65658;SDS011;60181;53.258;6.932;2023-05-19T10:22:12;7.90;;;2.60;;
65658;SDS011;60181;53.258;6.932;2023-05-19T10:26:16;7.90;;;2.60;;
65658;SDS011;60181;53.258;6.932;2023-05-19T10:30:30;8.70;;;2.30;;
65658;SDS011;60181;53.258;6.932;2023-05-19T10:34:33;8.70;;;2.30;;
65658;SDS011;60181;53.258;6.932;2023-05-19T10:46:38;8.40;;;2.50;;
65658;SDS011;60181;53.258;6.932;2023-05-19T10:50:43;6.40;;;2.30;;
65658;SDS011;60181;53.258;6.932;2023-05-19T10:54:44;6.40;;;2.30;;
65658;SDS011;60181;53.258;6.932;2023-05-19T10:58:48;9.40;;;2.30;;
65658;SDS011;60181;53.258;6.932;2023-05-19T11:02:52;9.40;;;2.30;;
65658;SDS011;60181;53.258;6.932;2023-05-19T11:06:56;9.40;;;2.30;;
65658;SDS011;60181;53.258;6.932;2023-05-19T11:11:15;7.90;;;2.50;;
65658;SDS011;60181;53.258;6.932;2023-05-19T11:15:05;7.90;;;2.50;;
65658;SDS011;60181;53.258;6.932;2023-05-19T11:19:15;12.50;;;2.80;;
65658;SDS011;60181;53.258;6.932;2023-05-19T11:23:15;12.50;;;2.80;;
65658;SDS011;60181;53.258;6.932;2023-05-19T11:31:20;15.50;;;2.90;;
65658;SDS011;60181;53.258;6.932;2023-05-19T11:35:24;15.50;;;2.90;;
65658;SDS011;60181;53.258;6.932;2023-05-19T11:39:29;9.90;;;2.80;;
65658;SDS011;60181;53.258;6.932;2023-05-19T11:43:32;9.90;;;2.80;;
65658;SDS011;60181;53.258;6.932;2023-05-19T11:47:36;9.50;;;2.90;;
65658;SDS011;60181;53.258;6.932;2023-05-19T11:51:43;9.50;;;2.90;;
65658;SDS011;60181;53.258;6.932;2023-05-19T11:55:45;9.50;;;2.90;;
65658;SDS011;60181;53.258;6.932;2023-05-19T11:59:48;11.50;;;3.20;;
65658;SDS011;60181;53.258;6.932;2023-05-19T12:03:52;11.50;;;3.20;;
65658;SDS011;60181;53.258;6.932;2023-05-19T12:07:56;11.70;;;3.30;;
65658;SDS011;60181;53.258;6.932;2023-05-19T12:12:00;11.70;;;3.30;;
65658;SDS011;60181;53.258;6.932;2023-05-19T12:16:05;11.70;;;3.30;;
65658;SDS011;60181;53.258;6.932;2023-05-19T12:20:09;16.40;;;3.80;;
65658;SDS011;60181;53.258;6.932;2023-05-19T12:24:12;16.40;;;3.80;;
65658;SDS011;60181;53.258;6.932;2023-05-19T12:28:16;30.30;;;5.40;;
65658;SDS011;60181;53.258;6.932;2023-05-19T12:32:23;30.30;;;5.40;;
65658;SDS011;60181;53.258;6.932;2023-05-19T12:36:24;30.30;;;5.40;;
65658;SDS011;60181;53.258;6.932;2023-05-19T12:40:28;22.80;;;4.60;;
65658;SDS011;60181;53.258;6.932;2023-05-19T12:44:35;22.80;;;4.60;;
65658;SDS011;60181;53.258;6.932;2023-05-19T12:48:40;22.60;;;4.70;;
65658;SDS011;60181;53.258;6.932;2023-05-19T12:52:41;22.60;;;4.70;;
65658;SDS011;60181;53.258;6.932;2023-05-19T12:56:50;22.60;;;4.70;;
65658;SDS011;60181;53.258;6.932;2023-05-19T13:00:48;18.50;;;4.40;;
65658;SDS011;60181;53.258;6.932;2023-05-19T13:04:52;18.50;;;4.40;;
65658;SDS011;60181;53.258;6.932;2023-05-19T13:08:56;13.80;;;4.20;;
65658;SDS011;60181;53.258;6.932;2023-05-19T13:13:01;13.80;;;4.20;;
65658;SDS011;60181;53.258;6.932;2023-05-19T13:17:04;13.80;;;4.20;;
65658;SDS011;60181;53.258;6.932;2023-05-19T13:21:08;15.60;;;4.90;;
65658;SDS011;60181;53.258;6.932;2023-05-19T13:25:12;15.60;;;4.90;;
65658;SDS011;60181;53.258;6.932;2023-05-19T13:29:16;12.20;;;4.10;;
65658;SDS011;60181;53.258;6.932;2023-05-19T13:33:20;12.20;;;4.10;;
65658;SDS011;60181;53.258;6.932;2023-05-19T13:37:24;16.00;;;4.30;;
65658;SDS011;60181;53.258;6.932;2023-05-19T13:41:28;16.00;;;4.30;;
65658;SDS011;60181;53.258;6.932;2023-05-19T13:45:32;16.00;;;4.30;;
65658;SDS011;60181;53.258;6.932;2023-05-19T13:49:36;13.20;;;3.80;;
65658;SDS011;60181;53.258;6.932;2023-05-19T13:53:40;13.20;;;3.80;;
65658;SDS011;60181;53.258;6.932;2023-05-19T13:57:44;11.70;;;3.90;;
65658;SDS011;60181;53.258;6.932;2023-05-19T14:01:48;11.70;;;3.90;;
65658;SDS011;60181;53.258;6.932;2023-05-19T14:05:52;11.70;;;3.90;;
65658;SDS011;60181;53.258;6.932;2023-05-19T14:09:56;16.50;;;4.30;;
65658;SDS011;60181;53.258;6.932;2023-05-19T14:14:00;16.50;;;4.30;;
65658;SDS011;60181;53.258;6.932;2023-05-19T14:18:04;15.20;;;4.10;;
65658;SDS011;60181;53.258;6.932;2023-05-19T14:22:08;15.20;;;4.10;;
65658;SDS011;60181;53.258;6.932;2023-05-19T14:26:12;15.20;;;4.10;;
65658;SDS011;60181;53.258;6.932;2023-05-19T14:30:16;9.30;;;3.80;;
65658;SDS011;60181;53.258;6.932;2023-05-19T14:34:20;9.30;;;3.80;;
65658;SDS011;60181;53.258;6.932;2023-05-19T14:38:25;12.80;;;3.70;;
65658;SDS011;60181;53.258;6.932;2023-05-19T14:42:28;12.80;;;3.70;;
65658;SDS011;60181;53.258;6.932;2023-05-19T14:46:32;12.80;;;3.70;;
65658;SDS011;60181;53.258;6.932;2023-05-19T14:50:36;12.50;;;3.80;;
65658;SDS011;60181;53.258;6.932;2023-05-19T14:54:40;12.50;;;3.80;;
65658;SDS011;60181;53.258;6.932;2023-05-19T14:58:44;11.10;;;3.90;;
65658;SDS011;60181;53.258;6.932;2023-05-19T15:02:48;11.10;;;3.90;;
65658;SDS011;60181;53.258;6.932;2023-05-19T15:06:52;11.10;;;3.90;;
65658;SDS011;60181;53.258;6.932;2023-05-19T15:10:56;12.60;;;4.00;;
65658;SDS011;60181;53.258;6.932;2023-05-19T15:15:00;12.60;;;4.00;;
65658;SDS011;60181;53.258;6.932;2023-05-19T15:19:04;10.30;;;3.40;;
65658;SDS011;60181;53.258;6.932;2023-05-19T15:23:08;10.30;;;3.40;;
65658;SDS011;60181;53.258;6.932;2023-05-19T15:27:12;10.30;;;3.40;;
65658;SDS011;60181;53.258;6.932;2023-05-19T15:31:16;7.80;;;3.50;;
65658;SDS011;60181;53.258;6.932;2023-05-19T15:35:20;7.80;;;3.50;;
65658;SDS011;60181;53.258;6.932;2023-05-19T15:39:24;9.90;;;3.60;;
65658;SDS011;60181;53.258;6.932;2023-05-19T15:43:28;9.90;;;3.60;;
65658;SDS011;60181;53.258;6.932;2023-05-19T15:47:32;9.30;;;3.50;;
65658;SDS011;60181;53.258;6.932;2023-05-19T15:51:36;9.30;;;3.50;;
65658;SDS011;60181;53.258;6.932;2023-05-19T15:55:40;9.30;;;3.50;;
65658;SDS011;60181;53.258;6.932;2023-05-19T15:59:44;9.20;;;3.40;;
65658;SDS011;60181;53.258;6.932;2023-05-19T16:03:48;9.20;;;3.40;;
65658;SDS011;60181;53.258;6.932;2023-05-19T16:07:52;10.50;;;3.50;;
65658;SDS011;60181;53.258;6.932;2023-05-19T16:11:56;10.50;;;3.50;;
65658;SDS011;60181;53.258;6.932;2023-05-19T16:16:00;10.50;;;3.50;;
65658;SDS011;60181;53.258;6.932;2023-05-19T16:20:04;11.30;;;3.70;;
65658;SDS011;60181;53.258;6.932;2023-05-19T16:24:08;11.30;;;3.70;;
65658;SDS011;60181;53.258;6.932;2023-05-19T16:28:12;10.70;;;3.90;;
65658;SDS011;60181;53.258;6.932;2023-05-19T16:32:16;10.70;;;3.90;;
65658;SDS011;60181;53.258;6.932;2023-05-19T16:36:20;10.70;;;3.90;;
65658;SDS011;60181;53.258;6.932;2023-05-19T16:40:24;13.90;;;3.70;;
65658;SDS011;60181;53.258;6.932;2023-05-19T16:44:28;13.90;;;3.70;;
65658;SDS011;60181;53.258;6.932;2023-05-19T16:48:32;9.80;;;3.20;;
65658;SDS011;60181;53.258;6.932;2023-05-19T16:52:36;9.80;;;3.20;;
65658;SDS011;60181;53.258;6.932;2023-05-19T16:56:40;9.80;;;3.20;;
65658;SDS011;60181;53.258;6.932;2023-05-19T17:00:44;11.30;;;3.50;;
65658;SDS011;60181;53.258;6.932;2023-05-19T17:04:48;11.30;;;3.50;;
65658;SDS011;60181;53.258;6.932;2023-05-19T17:08:52;9.40;;;3.20;;
65658;SDS011;60181;53.258;6.932;2023-05-19T17:12:56;9.40;;;3.20;;
65658;SDS011;60181;53.258;6.932;2023-05-19T17:17:00;9.40;;;3.20;;
65658;SDS011;60181;53.258;6.932;2023-05-19T17:21:04;8.60;;;3.10;;
65658;SDS011;60181;53.258;6.932;2023-05-19T17:25:08;8.60;;;3.10;;
65658;SDS011;60181;53.258;6.932;2023-05-19T17:29:12;7.60;;;3.10;;
65658;SDS011;60181;53.258;6.932;2023-05-19T17:33:16;7.60;;;3.10;;
65658;SDS011;60181;53.258;6.932;2023-05-19T17:37:20;7.30;;;2.70;;
65658;SDS011;60181;53.258;6.932;2023-05-19T17:41:24;7.30;;;2.70;;
65658;SDS011;60181;53.258;6.932;2023-05-19T17:45:28;7.30;;;2.70;;
65658;SDS011;60181;53.258;6.932;2023-05-19T17:49:32;8.50;;;3.00;;
65658;SDS011;60181;53.258;6.932;2023-05-19T17:53:36;8.50;;;3.00;;
65658;SDS011;60181;53.258;6.932;2023-05-19T17:57:40;5.60;;;2.50;;
65658;SDS011;60181;53.258;6.932;2023-05-19T18:01:44;5.60;;;2.50;;
65658;SDS011;60181;53.258;6.932;2023-05-19T18:05:48;5.60;;;2.50;;
65658;SDS011;60181;53.258;6.932;2023-05-19T18:09:52;8.80;;;2.70;;
65658;SDS011;60181;53.258;6.932;2023-05-19T18:13:56;8.80;;;2.70;;
65658;SDS011;60181;53.258;6.932;2023-05-19T18:18:00;8.30;;;2.90;;
65658;SDS011;60181;53.258;6.932;2023-05-19T18:22:04;8.30;;;2.90;;
65658;SDS011;60181;53.258;6.932;2023-05-19T18:26:08;8.30;;;2.90;;
65658;SDS011;60181;53.258;6.932;2023-05-19T18:30:12;6.00;;;2.70;;
65658;SDS011;60181;53.258;6.932;2023-05-19T18:34:16;6.00;;;2.70;;
65658;SDS011;60181;53.258;6.932;2023-05-19T18:38:20;8.80;;;2.60;;
65658;SDS011;60181;53.258;6.932;2023-05-19T18:42:24;8.80;;;2.60;;
65658;SDS011;60181;53.258;6.932;2023-05-19T18:46:28;8.80;;;2.60;;
65658;SDS011;60181;53.258;6.932;2023-05-19T18:50:32;6.60;;;2.50;;
65658;SDS011;60181;53.258;6.932;2023-05-19T18:54:36;6.60;;;2.50;;
65658;SDS011;60181;53.258;6.932;2023-05-19T18:58:40;6.00;;;2.50;;
65658;SDS011;60181;53.258;6.932;2023-05-19T19:02:44;6.00;;;2.50;;
65658;SDS011;60181;53.258;6.932;2023-05-19T19:06:48;6.00;;;2.50;;
65658;SDS011;60181;53.258;6.932;2023-05-19T19:10:52;4.70;;;2.40;;
65658;SDS011;60181;53.258;6.932;2023-05-19T19:14:56;4.70;;;2.40;;
65658;SDS011;60181;53.258;6.932;2023-05-19T19:19:00;7.20;;;2.60;;
65658;SDS011;60181;53.258;6.932;2023-05-19T19:23:04;7.20;;;2.60;;
65658;SDS011;60181;53.258;6.932;2023-05-19T19:27:08;7.20;;;2.60;;
65658;SDS011;60181;53.258;6.932;2023-05-19T19:31:12;6.30;;;2.30;;
65658;SDS011;60181;53.258;6.932;2023-05-19T19:35:16;6.30;;;2.30;;
65658;SDS011;60181;53.258;6.932;2023-05-19T19:39:20;4.80;;;2.30;;
65658;SDS011;60181;53.258;6.932;2023-05-19T19:43:24;4.80;;;2.30;;
65658;SDS011;60181;53.258;6.932;2023-05-19T19:47:28;4.60;;;2.30;;
65658;SDS011;60181;53.258;6.932;2023-05-19T19:51:32;4.60;;;2.30;;
65658;SDS011;60181;53.258;6.932;2023-05-19T19:55:36;4.60;;;2.30;;
65658;SDS011;60181;53.258;6.932;2023-05-19T19:59:40;5.30;;;2.50;;
65658;SDS011;60181;53.258;6.932;2023-05-19T20:03:44;5.30;;;2.50;;
65658;SDS011;60181;53.258;6.932;2023-05-19T20:07:48;4.80;;;2.50;;
65658;SDS011;60181;53.258;6.932;2023-05-19T20:11:52;4.80;;;2.50;;
65658;SDS011;60181;53.258;6.932;2023-05-19T20:15:56;4.80;;;2.50;;
65658;SDS011;60181;53.258;6.932;2023-05-19T20:20:00;4.50;;;2.30;;
65658;SDS011;60181;53.258;6.932;2023-05-19T20:24:04;4.50;;;2.30;;
65658;SDS011;60181;53.258;6.932;2023-05-19T20:28:08;5.60;;;2.40;;
65658;SDS011;60181;53.258;6.932;2023-05-19T20:32:12;5.60;;;2.40;;
65658;SDS011;60181;53.258;6.932;2023-05-19T20:36:16;5.60;;;2.40;;
65658;SDS011;60181;53.258;6.932;2023-05-19T20:40:20;7.00;;;2.30;;
65658;SDS011;60181;53.258;6.932;2023-05-19T20:44:24;7.00;;;2.30;;
65658;SDS011;60181;53.258;6.932;2023-05-19T20:48:28;4.00;;;2.10;;
65658;SDS011;60181;53.258;6.932;2023-05-19T20:52:32;4.00;;;2.10;;
65658;SDS011;60181;53.258;6.932;2023-05-19T20:56:36;4.00;;;2.10;;
65658;SDS011;60181;53.258;6.932;2023-05-19T21:00:40;6.00;;;2.20;;
65658;SDS011;60181;53.258;6.932;2023-05-19T21:04:44;6.00;;;2.20;;
65658;SDS011;60181;53.258;6.932;2023-05-19T21:08:48;4.10;;;2.00;;
65658;SDS011;60181;53.258;6.932;2023-05-19T21:12:52;4.10;;;2.00;;
65658;SDS011;60181;53.258;6.932;2023-05-19T21:16:56;4.10;;;2.00;;
65658;SDS011;60181;53.258;6.932;2023-05-19T21:21:02;6.20;;;2.00;;
65658;SDS011;60181;53.258;6.932;2023-05-19T21:25:04;6.20;;;2.00;;
65658;SDS011;60181;53.258;6.932;2023-05-19T21:29:08;5.50;;;2.20;;
65658;SDS011;60181;53.258;6.932;2023-05-19T21:33:11;5.50;;;2.20;;
65658;SDS011;60181;53.258;6.932;2023-05-19T21:37:16;5.50;;;2.20;;
65658;SDS011;60181;53.258;6.932;2023-05-19T21:41:19;4.70;;;2.20;;
65658;SDS011;60181;53.258;6.932;2023-05-19T21:45:24;4.70;;;2.20;;
65658;SDS011;60181;53.258;6.932;2023-05-19T21:49:27;5.70;;;2.20;;
65658;SDS011;60181;53.258;6.932;2023-05-19T21:53:31;5.70;;;2.20;;
65658;SDS011;60181;53.258;6.932;2023-05-19T21:57:35;6.00;;;2.10;;
65658;SDS011;60181;53.258;6.932;2023-05-19T22:01:39;6.00;;;2.10;;
65658;SDS011;60181;53.258;6.932;2023-05-19T22:05:47;6.00;;;2.10;;
65658;SDS011;60181;53.258;6.932;2023-05-19T22:09:47;6.70;;;2.10;;
65658;SDS011;60181;53.258;6.932;2023-05-19T22:13:51;6.70;;;2.10;;
65658;SDS011;60181;53.258;6.932;2023-05-19T22:17:55;3.60;;;2.00;;
65658;SDS011;60181;53.258;6.932;2023-05-19T22:21:59;3.60;;;2.00;;
65658;SDS011;60181;53.258;6.932;2023-05-19T22:26:04;3.60;;;2.00;;
65658;SDS011;60181;53.258;6.932;2023-05-19T22:30:08;5.50;;;2.20;;
65658;SDS011;60181;53.258;6.932;2023-05-19T22:34:11;5.50;;;2.20;;
65658;SDS011;60181;53.258;6.932;2023-05-19T22:38:15;5.30;;;2.30;;
65658;SDS011;60181;53.258;6.932;2023-05-19T22:42:19;5.30;;;2.30;;
65658;SDS011;60181;53.258;6.932;2023-05-19T22:46:23;5.30;;;2.30;;
65658;SDS011;60181;53.258;6.932;2023-05-19T22:50:27;5.40;;;2.10;;
65658;SDS011;60181;53.258;6.932;2023-05-19T22:54:31;5.40;;;2.10;;
65658;SDS011;60181;53.258;6.932;2023-05-19T22:58:35;3.80;;;2.00;;
65658;SDS011;60181;53.258;6.932;2023-05-19T23:02:40;3.80;;;2.00;;
65658;SDS011;60181;53.258;6.932;2023-05-19T23:06:43;3.80;;;2.00;;
65658;SDS011;60181;53.258;6.932;2023-05-19T23:10:47;3.40;;;1.90;;
65658;SDS011;60181;53.258;6.932;2023-05-19T23:14:51;3.40;;;1.90;;
65658;SDS011;60181;53.258;6.932;2023-05-19T23:18:55;6.00;;;2.40;;
65658;SDS011;60181;53.258;6.932;2023-05-19T23:23:00;6.00;;;2.40;;
65658;SDS011;60181;53.258;6.932;2023-05-19T23:27:04;6.00;;;2.40;;
65658;SDS011;60181;53.258;6.932;2023-05-19T23:31:07;3.50;;;2.00;;
65658;SDS011;60181;53.258;6.932;2023-05-19T23:35:12;3.50;;;2.00;;
65658;SDS011;60181;53.258;6.932;2023-05-19T23:39:15;4.60;;;2.10;;
65658;SDS011;60181;53.258;6.932;2023-05-19T23:43:19;4.60;;;2.10;;
65658;SDS011;60181;53.258;6.932;2023-05-19T23:47:23;4.90;;;2.20;;
65658;SDS011;60181;53.258;6.932;2023-05-19T23:51:27;4.90;;;2.20;;
65658;SDS011;60181;53.258;6.932;2023-05-19T23:55:31;4.90;;;2.20;;
65658;SDS011;60181;53.258;6.932;2023-05-19T23:59:35;4.30;;;2.20;;
